createdAt,value
2022-11-05T17:31:32.106Z,13.94
2022-11-05T17:34:19.946Z,12.79
2022-11-05T17:37:08.024Z,12.10
2022-11-05T17:39:56.182Z,12.63
2022-11-05T17:42:45.806Z,13.15
2022-11-05T17:45:33.756Z,13.50
2022-11-05T17:48:21.889Z,13.69
2022-11-05T17:51:13.240Z,13.80
2022-11-05T17:54:01.107Z,13.89
2022-11-05T17:56:49.351Z,14.00
2022-11-05T17:59:38.948Z,13.98
2022-11-05T18:02:29.660Z,14.03
2022-11-05T18:05:20.006Z,14.15
2022-11-05T18:08:09.285Z,13.88
2022-11-05T18:11:04.023Z,12.75
2022-11-05T18:13:52.700Z,12.04
2022-11-05T18:16:41.103Z,12.65
2022-11-05T18:19:30.043Z,13.24
2022-11-05T18:22:19.624Z,13.65
2022-11-05T18:25:10.821Z,13.91
2022-11-05T18:27:58.899Z,14.09
2022-11-05T18:30:46.870Z,14.19
2022-11-05T18:33:34.887Z,13.93
2022-11-05T18:36:30.059Z,12.75
2022-11-05T18:39:18.200Z,11.94
2022-11-05T18:42:06.383Z,12.47
2022-11-05T18:44:54.151Z,13.00
2022-11-05T18:47:42.275Z,13.33
2022-11-05T18:50:30.674Z,13.48
2022-11-05T18:53:19.062Z,13.62
2022-11-05T18:56:09.741Z,13.67
2022-11-05T18:59:21.959Z,13.66
2022-11-05T19:02:07.180Z,13.67
2022-11-05T19:05:26.692Z,13.70
2022-11-05T19:08:03.098Z,13.39
2022-11-05T19:10:53.169Z,12.23
2022-11-05T19:13:41.970Z,11.49
2022-11-05T19:16:32.368Z,12.07
2022-11-05T19:19:20.132Z,12.57
2022-11-05T19:22:08.481Z,12.87
2022-11-05T19:24:56.405Z,13.00
2022-11-05T19:27:44.461Z,13.13
2022-11-05T19:30:32.431Z,13.21
2022-11-05T19:33:20.423Z,13.21
2022-11-05T19:36:09.656Z,13.31
2022-11-05T19:39:02.521Z,13.47
2022-11-05T19:41:50.702Z,13.55
2022-11-05T19:44:39.113Z,13.58
2022-11-05T19:47:27.535Z,13.61
2022-11-05T19:50:16.433Z,13.10
2022-11-05T19:53:07.912Z,11.79
2022-11-05T19:55:55.897Z,11.13
2022-11-05T19:58:45.266Z,11.73
2022-11-05T20:01:35.056Z,12.14
2022-11-05T20:04:23.390Z,12.48
2022-11-05T20:07:11.872Z,12.77
2022-11-05T20:10:00.400Z,12.83
2022-11-05T20:12:48.347Z,13.01
2022-11-05T20:15:40.049Z,13.05
2022-11-05T20:18:28.868Z,13.10
2022-11-05T20:21:17.740Z,13.14
2022-11-05T20:24:06.301Z,12.76
2022-11-05T20:26:55.954Z,11.47
2022-11-05T20:29:43.935Z,10.78
2022-11-05T20:32:32.151Z,11.35
2022-11-05T20:35:20.190Z,11.91
2022-11-05T20:38:08.561Z,12.28
2022-11-05T20:40:56.695Z,12.48
2022-11-05T20:43:46.971Z,12.69
2022-11-05T20:46:35.049Z,12.77
2022-11-05T20:49:25.536Z,12.84
2022-11-05T20:52:17.240Z,12.82
2022-11-05T20:55:09.204Z,12.85
2022-11-05T20:57:57.831Z,12.97
2022-11-05T21:00:52.587Z,12.88
2022-11-05T21:03:40.570Z,11.94
2022-11-05T21:06:29.449Z,10.79
2022-11-05T21:09:17.649Z,11.05
2022-11-05T21:12:12.115Z,11.65
2022-11-05T21:15:00.557Z,11.99
2022-11-05T21:17:50.519Z,12.21
2022-11-05T21:20:40.790Z,12.37
2022-11-05T21:23:29.034Z,12.49
2022-11-05T21:26:18.132Z,12.41
2022-11-05T21:29:07.883Z,12.47
2022-11-05T21:31:57.010Z,12.52
2022-11-05T21:34:58.856Z,12.60
2022-11-05T21:37:47.224Z,12.51
2022-11-05T21:40:37.391Z,11.69
2022-11-05T21:43:32.350Z,10.41
2022-11-05T21:46:21.495Z,9.87
2022-11-05T21:49:09.872Z,10.61
2022-11-05T21:52:16.778Z,11.20
2022-11-05T21:55:24.245Z,11.63
2022-11-05T21:58:34.724Z,11.95
2022-11-05T22:01:22.985Z,12.13
2022-11-05T22:04:10.897Z,12.28
2022-11-05T22:06:59.627Z,12.40
2022-11-05T22:09:47.540Z,12.34
2022-11-05T22:12:35.543Z,11.20
2022-11-05T22:15:23.911Z,9.98
2022-11-05T22:18:13.283Z,9.48
2022-11-05T22:21:01.669Z,10.34
2022-11-05T22:23:49.690Z,11.04
2022-11-05T22:26:39.104Z,11.42
2022-11-05T22:29:28.629Z,11.68
2022-11-05T22:32:17.389Z,11.91
2022-11-05T22:35:09.267Z,12.08
2022-11-05T22:37:57.264Z,12.22
2022-11-05T22:40:45.251Z,12.32
2022-11-05T22:43:33.430Z,11.94
2022-11-05T22:46:24.301Z,10.62
2022-11-05T22:49:12.442Z,9.77
2022-11-05T22:52:00.066Z,10.36
2022-11-05T22:54:48.028Z,10.98
2022-11-05T22:57:36.056Z,11.37
2022-11-05T23:00:37.128Z,11.69
2022-11-05T23:03:27.154Z,11.90
2022-11-05T23:06:51.521Z,12.05
2022-11-05T23:09:57.807Z,12.21
2022-11-05T23:12:45.612Z,12.35
2022-11-05T23:15:51.656Z,12.02
2022-11-05T23:18:57.806Z,10.61
2022-11-05T23:22:03.899Z,9.93
2022-11-05T23:24:53.095Z,10.76
2022-11-05T23:27:41.818Z,11.38
2022-11-05T23:30:30.040Z,11.73
2022-11-05T23:33:19.915Z,11.88
2022-11-05T23:36:37.685Z,12.02
2022-11-05T23:39:25.442Z,12.13
2022-11-05T23:42:32.473Z,11.88
2022-11-05T23:45:39.305Z,10.42
2022-11-05T23:48:34.646Z,9.48
2022-11-05T23:51:23.109Z,10.19
2022-11-05T23:54:37.653Z,10.93
2022-11-05T23:57:27.455Z,11.40
